Time;durP1;ratioP1;P1;durP2;ratioP2;P2;SDS_P1;SDS_P2;PMS_P1;PMS_P2;Temp;Humidity;BMP_temperature;BMP_pressure;BME280_temperature;BME280_humidity;BME280_pressure;Samples;Min_cycle;Max_cycle;Signal;HPM_P1;HPM_P2
2023/06/30 00:02:02;;;;;;;8.15;4.97;;;;;;;;;;6244164;23;20175;-91
2023/06/30 00:05:07;;;;;;;6.93;4.82;;;;;;;;;;6245031;22;20170;-90
2023/06/30 00:08:12;;;;;;;7.57;4.85;;;;;;;;;;6244289;22;20265;-90
2023/06/30 00:11:23;;;;;;;8.23;5.00;;;;;;;;;;6242526;23;20174;-89
2023/06/30 00:14:30;;;;;;;8.25;4.65;;;;;;;;;;6244788;23;20709;-92
2023/06/30 00:17:36;;;;;;;7.57;5.07;;;;;;;;;;6242630;23;20618;-90
2023/06/30 00:20:45;;;;;;;8.07;4.90;;;;;;;;;;6243498;22;20171;-91
2023/06/30 00:23:50;;;;;;;5.93;4.30;;;;;;;;;;6245085;23;20170;-92
2023/06/30 00:26:56;;;;;;;8.82;4.78;;;;;;;;;;6244999;23;20217;-87
2023/06/30 00:30:02;;;;;;;10.95;4.68;;;;;;;;;;6245909;22;20170;-91
2023/06/30 00:33:07;;;;;;;8.57;4.47;;;;;;;;;;6244587;22;20170;-91
2023/06/30 00:36:12;;;;;;;6.93;4.30;;;;;;;;;;6245659;23;20636;-93
2023/06/30 00:39:17;;;;;;;5.97;4.10;;;;;;;;;;6245241;23;20170;-91
2023/06/30 00:42:23;;;;;;;6.57;4.35;;;;;;;;;;6244550;23;20211;-88
2023/06/30 00:45:30;;;;;;;8.95;4.10;;;;;;;;;;6245208;23;20151;-91
2023/06/30 00:48:36;;;;;;;8.43;5.03;;;;;;;;;;6244588;22;20174;-91
2023/06/30 00:51:43;;;;;;;6.70;4.40;;;;;;;;;;6246735;22;20166;-93
2023/06/30 00:54:49;;;;;;;6.68;4.05;;;;;;;;;;6246099;23;20162;-90
2023/06/30 01:02:16;;;;;;;7.43;3.88;;;;;;;;;;6262117;22;20202;-90
2023/06/30 01:05:26;;;;;;;7.53;3.88;;;;;;;;;;6244372;23;20618;-91
2023/06/30 01:08:36;;;;;;;7.20;3.50;;;;;;;;;;6243282;23;20183;-92
2023/06/30 01:11:41;;;;;;;5.40;3.33;;;;;;;;;;6243962;23;20190;-91
2023/06/30 01:14:48;;;;;;;7.10;3.80;;;;;;;;;;6245751;23;20162;-90
2023/06/30 01:17:56;;;;;;;8.43;3.95;;;;;;;;;;6245151;23;20171;-91
2023/06/30 01:21:02;;;;;;;6.40;4.15;;;;;;;;;;6244529;23;20228;-89
2023/06/30 01:24:09;;;;;;;7.88;3.80;;;;;;;;;;6243552;23;20145;-90
2023/06/30 01:27:15;;;;;;;6.82;4.05;;;;;;;;;;6242515;22;20166;-90
2023/06/30 01:30:21;;;;;;;6.28;3.90;;;;;;;;;;6242379;22;20730;-89
2023/06/30 01:33:28;;;;;;;6.43;4.15;;;;;;;;;;6243609;22;20183;-94
2023/06/30 01:36:33;;;;;;;11.75;4.13;;;;;;;;;;6242624;23;20244;-91
2023/06/30 01:39:39;;;;;;;8.35;4.50;;;;;;;;;;6243028;23;20174;-89
2023/06/30 01:42:47;;;;;;;7.32;4.60;;;;;;;;;;6240609;22;20233;-93
2023/06/30 01:45:52;;;;;;;11.27;4.60;;;;;;;;;;6244180;22;20167;-91
2023/06/30 01:49:00;;;;;;;8.30;4.78;;;;;;;;;;6243014;23;20205;-93
2023/06/30 01:52:05;;;;;;;8.20;5.20;;;;;;;;;;6244647;23;20213;-93
2023/06/30 01:55:14;;;;;;;11.07;5.05;;;;;;;;;;6241543;23;20610;-91
2023/06/30 01:58:25;;;;;;;11.25;4.60;;;;;;;;;;6241790;23;20150;-90
2023/06/30 02:01:30;;;;;;;7.00;4.50;;;;;;;;;;6243418;23;20186;-93
2023/06/30 02:04:37;;;;;;;7.57;4.88;;;;;;;;;;6242919;23;20171;-92
2023/06/30 02:07:42;;;;;;;7.25;4.47;;;;;;;;;;6242137;23;20265;-90
2023/06/30 02:10:47;;;;;;;7.88;4.35;;;;;;;;;;6241205;22;20170;-91
2023/06/30 02:13:53;;;;;;;5.65;4.15;;;;;;;;;;6242238;22;20217;-90
2023/06/30 02:17:03;;;;;;;6.03;3.95;;;;;;;;;;6242073;23;20617;-93
2023/06/30 02:20:14;;;;;;;9.73;3.85;;;;;;;;;;6243202;23;20170;-91
2023/06/30 02:23:20;;;;;;;8.55;3.75;;;;;;;;;;6241816;23;20163;-91
2023/06/30 02:26:26;;;;;;;6.53;4.47;;;;;;;;;;6242669;22;20170;-91
2023/06/30 02:29:31;;;;;;;8.27;4.30;;;;;;;;;;6243943;22;20190;-95
2023/06/30 02:32:37;;;;;;;6.85;4.20;;;;;;;;;;6244726;23;20195;-90
2023/06/30 02:35:44;;;;;;;5.68;3.80;;;;;;;;;;6245109;23;20637;-91
2023/06/30 02:38:49;;;;;;;9.73;4.22;;;;;;;;;;6243648;23;20171;-90
2023/06/30 02:41:54;;;;;;;6.55;4.00;;;;;;;;;;6242866;22;20171;-91
2023/06/30 02:45:00;;;;;;;8.88;4.40;;;;;;;;;;6242778;23;20257;-91
2023/06/30 02:48:06;;;;;;;5.68;4.15;;;;;;;;;;6243277;23;20230;-91
2023/06/30 02:51:13;;;;;;;7.28;4.65;;;;;;;;;;6242818;23;20166;-92
2023/06/30 02:54:18;;;;;;;7.80;4.28;;;;;;;;;;6242089;23;20537;-92
2023/06/30 02:57:28;;;;;;;6.97;4.32;;;;;;;;;;6241920;22;20231;-92
2023/06/30 03:00:34;;;;;;;6.00;3.97;;;;;;;;;;6243782;23;20170;-94
2023/06/30 03:03:40;;;;;;;5.75;3.63;;;;;;;;;;6242271;22;20253;-89
2023/06/30 03:06:48;;;;;;;6.53;4.40;;;;;;;;;;6243448;23;20214;-91
2023/06/30 03:09:54;;;;;;;7.20;4.22;;;;;;;;;;6243434;23;20178;-90
2023/06/30 03:12:59;;;;;;;9.25;3.88;;;;;;;;;;6242752;22;20733;-91
2023/06/30 03:16:05;;;;;;;6.05;4.55;;;;;;;;;;6243316;23;20199;-91
2023/06/30 03:19:14;;;;;;;6.70;4.03;;;;;;;;;;6242324;22;20457;-92
2023/06/30 03:22:21;;;;;;;8.88;4.13;;;;;;;;;;6241679;23;20167;-90
2023/06/30 03:25:26;;;;;;;6.22;3.83;;;;;;;;;;6242684;22;20158;-93
2023/06/30 03:28:31;;;;;;;5.50;3.95;;;;;;;;;;6241340;23;20245;-90
2023/06/30 03:31:37;;;;;;;9.85;4.65;;;;;;;;;;6241152;23;20354;-90
2023/06/30 03:34:45;;;;;;;5.60;3.80;;;;;;;;;;6241934;23;20166;-91
2023/06/30 03:37:51;;;;;;;7.50;3.80;;;;;;;;;;6240620;22;20174;-90
2023/06/30 03:40:56;;;;;;;5.85;4.00;;;;;;;;;;6243002;22;20178;-90
2023/06/30 03:44:03;;;;;;;6.82;3.53;;;;;;;;;;6243799;22;20170;-93
2023/06/30 03:47:08;;;;;;;5.70;3.80;;;;;;;;;;6241547;23;20173;-90
2023/06/30 03:50:14;;;;;;;10.30;4.25;;;;;;;;;;6242249;22;20232;-91
2023/06/30 03:53:21;;;;;;;8.57;4.38;;;;;;;;;;6243278;23;20230;-90
2023/06/30 03:56:26;;;;;;;6.18;4.32;;;;;;;;;;6244787;23;20174;-91
2023/06/30 03:59:32;;;;;;;7.95;3.85;;;;;;;;;;6246775;23;20169;-91
2023/06/30 04:02:43;;;;;;;7.90;4.10;;;;;;;;;;6244713;23;20178;-90
2023/06/30 04:05:48;;;;;;;6.65;4.07;;;;;;;;;;6245797;22;20203;-91
2023/06/30 04:08:55;;;;;;;10.27;4.22;;;;;;;;;;6244901;23;20198;-90
2023/06/30 04:12:00;;;;;;;7.88;4.25;;;;;;;;;;6246102;22;20226;-90
2023/06/30 04:15:07;;;;;;;6.95;4.70;;;;;;;;;;6245267;23;20617;-90
2023/06/30 04:18:13;;;;;;;8.60;4.82;;;;;;;;;;6243053;23;20166;-90
2023/06/30 04:21:18;;;;;;;7.40;4.72;;;;;;;;;;6246588;23;20170;-91
2023/06/30 04:24:25;;;;;;;8.00;4.38;;;;;;;;;;6246048;22;20162;-90
2023/06/30 04:27:30;;;;;;;10.07;4.53;;;;;;;;;;6245282;22;20166;-90
2023/06/30 04:30:36;;;;;;;9.52;4.90;;;;;;;;;;6246454;23;20544;-89
2023/06/30 04:33:41;;;;;;;9.85;5.00;;;;;;;;;;6244580;23;20167;-90
2023/06/30 04:36:49;;;;;;;7.57;4.90;;;;;;;;;;6228196;22;20158;-90
2023/06/30 04:39:56;;;;;;;10.23;5.25;;;;;;;;;;6246460;22;20158;-90
2023/06/30 04:43:02;;;;;;;8.07;4.40;;;;;;;;;;6245248;23;20171;-91
2023/06/30 04:46:07;;;;;;;7.60;4.60;;;;;;;;;;6247524;23;20166;-91
2023/06/30 04:49:13;;;;;;;9.65;5.13;;;;;;;;;;6245617;23;20202;-89
2023/06/30 04:52:19;;;;;;;12.00;5.22;;;;;;;;;;6245721;23;20182;-92
2023/06/30 04:55:26;;;;;;;17.25;5.20;;;;;;;;;;6245277;23;20223;-91
2023/06/30 04:58:36;;;;;;;6.97;4.43;;;;;;;;;;6244168;22;20220;-91
2023/06/30 05:01:41;;;;;;;7.15;4.28;;;;;;;;;;6245351;23;20253;-91
2023/06/30 05:04:47;;;;;;;8.13;4.90;;;;;;;;;;6242813;23;20167;-90
2023/06/30 05:07:52;;;;;;;10.60;5.38;;;;;;;;;;6242323;23;20552;-88
2023/06/30 05:11:00;;;;;;;9.23;5.50;;;;;;;;;;6243472;22;20610;-91
2023/06/30 05:14:06;;;;;;;12.70;6.40;;;;;;;;;;6243653;23;20174;-90
2023/06/30 05:17:11;;;;;;;11.50;6.32;;;;;;;;;;6245951;23;20170;-90
2023/06/30 05:20:22;;;;;;;11.13;6.93;;;;;;;;;;6247987;23;20163;-89
2023/06/30 05:23:28;;;;;;;10.55;6.70;;;;;;;;;;6243371;23;20170;-90
2023/06/30 05:26:34;;;;;;;12.40;6.85;;;;;;;;;;6245359;22;20178;-91
2023/06/30 05:29:39;;;;;;;10.45;6.38;;;;;;;;;;6245001;23;20210;-90
2023/06/30 05:32:44;;;;;;;10.80;6.20;;;;;;;;;;6246307;23;20171;-91
2023/06/30 05:35:50;;;;;;;11.50;5.50;;;;;;;;;;6245081;23;20162;-91
2023/06/30 05:38:55;;;;;;;10.05;5.28;;;;;;;;;;6242525;23;20222;-90
2023/06/30 05:42:01;;;;;;;7.30;5.50;;;;;;;;;;6245260;22;20146;-91
2023/06/30 05:45:07;;;;;;;8.80;5.95;;;;;;;;;;6245586;23;20154;-90
2023/06/30 05:48:13;;;;;;;11.60;6.20;;;;;;;;;;6245835;23;20170;-91
2023/06/30 05:51:19;;;;;;;9.02;5.47;;;;;;;;;;6244662;23;20208;-89
2023/06/30 05:54:24;;;;;;;10.25;5.57;;;;;;;;;;6241933;22;20215;-88
2023/06/30 05:57:36;;;;;;;8.23;5.30;;;;;;;;;;6241323;23;20276;-89
2023/06/30 06:00:42;;;;;;;8.45;4.85;;;;;;;;;;6242318;23;20162;-90
2023/06/30 06:03:47;;;;;;;7.85;4.65;;;;;;;;;;6242335;23;20213;-93
2023/06/30 06:06:53;;;;;;;11.48;5.07;;;;;;;;;;6243850;23;20175;-91
2023/06/30 06:09:59;;;;;;;6.60;4.40;;;;;;;;;;6241660;23;20178;-90
2023/06/30 06:13:06;;;;;;;7.00;4.22;;;;;;;;;;6242997;22;20199;-91
2023/06/30 06:16:11;;;;;;;7.50;4.80;;;;;;;;;;6243861;22;20205;-92
2023/06/30 06:19:20;;;;;;;7.00;4.97;;;;;;;;;;6241356;23;20261;-90
2023/06/30 06:22:26;;;;;;;8.10;5.28;;;;;;;;;;6241617;23;20170;-88
2023/06/30 06:25:31;;;;;;;8.57;5.30;;;;;;;;;;6242663;22;20162;-87
2023/06/30 06:28:37;;;;;;;10.05;5.05;;;;;;;;;;6242844;22;20201;-90
2023/06/30 06:31:44;;;;;;;8.98;4.32;;;;;;;;;;6244608;22;20166;-91
2023/06/30 06:34:49;;;;;;;7.97;4.88;;;;;;;;;;6244429;23;20167;-88
2023/06/30 06:37:55;;;;;;;10.30;4.15;;;;;;;;;;6241872;22;20246;-91
2023/06/30 06:41:00;;;;;;;7.32;4.70;;;;;;;;;;6241817;22;20239;-92
2023/06/30 06:44:08;;;;;;;6.82;4.03;;;;;;;;;;6242705;22;20170;-89
2023/06/30 06:47:32;;;;;;;6.82;3.75;;;;;;;;;;6245202;23;20225;-89
2023/06/30 06:50:37;;;;;;;9.93;4.30;;;;;;;;;;6240871;23;20193;-87
2023/06/30 06:53:43;;;;;;;7.57;4.20;;;;;;;;;;6243703;22;20167;-90
2023/06/30 06:56:50;;;;;;;7.10;3.60;;;;;;;;;;6241756;22;20171;-91
2023/06/30 06:59:59;;;;;;;6.22;3.70;;;;;;;;;;6243333;22;20186;-89
2023/06/30 07:03:06;;;;;;;6.50;3.35;;;;;;;;;;6246808;23;20214;-88
2023/06/30 07:06:12;;;;;;;7.28;3.78;;;;;;;;;;6244648;23;20162;-90
2023/06/30 23:21:44;;;;;;;24.85;13.05;;;;;;;;;;6151376;23;20148;-91
2023/06/30 23:24:49;;;;;;;23.40;13.15;;;;;;;;;;6150414;23;20168;-91
2023/06/30 23:27:55;;;;;;;23.70;13.65;;;;;;;;;;6151833;23;20172;-91
2023/06/30 23:31:01;;;;;;;22.98;14.25;;;;;;;;;;6150019;23;20268;-92
2023/06/30 23:34:06;;;;;;;21.35;12.57;;;;;;;;;;6152886;23;20172;-92
2023/06/30 23:37:14;;;;;;;22.83;12.90;;;;;;;;;;6152483;23;20168;-92
2023/06/30 23:40:19;;;;;;;25.92;13.82;;;;;;;;;;6151813;23;20168;-91
2023/06/30 23:43:24;;;;;;;25.02;13.85;;;;;;;;;;6151759;23;20165;-91
2023/06/30 23:46:30;;;;;;;25.15;13.77;;;;;;;;;;6150060;23;20169;-90
2023/06/30 23:49:35;;;;;;;27.75;14.52;;;;;;;;;;6152933;23;20169;-91
2023/06/30 23:52:42;;;;;;;30.15;15.20;;;;;;;;;;6153186;23;20168;-92
2023/06/30 23:55:47;;;;;;;27.98;14.98;;;;;;;;;;6153318;23;20548;-91
2023/06/30 23:58:52;;;;;;;25.02;15.27;;;;;;;;;;6151609;23;20181;-91
